Time;durP1;ratioP1;P1;durP2;ratioP2;P2;SDS_P1;SDS_P2;PMS_P1;PMS_P2;Temp;Humidity;BMP_temperature;BMP_pressure;BME280_temperature;BME280_humidity;BME280_pressure;Samples;Min_cycle;Max_cycle;Signal;HPM_P1;HPM_P2
2023/06/06 00:01:32;;;;;;;14.40;7.10;;;;;;;16.96;100.00;100642.75;5081728;28;20051;-74
2023/06/06 00:03:57;;;;;;;18.35;7.22;;;;;;;16.93;100.00;100649.03;5110957;28;20032;-75
2023/06/06 00:06:24;;;;;;;15.80;6.28;;;;;;;16.86;100.00;100651.53;5085054;28;20035;-75
2023/06/06 00:08:52;;;;;;;14.98;7.25;;;;;;;16.83;100.00;100649.41;5099511;28;20105;-74
2023/06/06 00:11:18;;;;;;;14.82;8.32;;;;;;;16.69;100.00;100654.34;5099440;28;20046;-75
2023/06/06 00:13:44;;;;;;;13.73;6.78;;;;;;;16.72;100.00;100645.25;5081373;28;20476;-75
2023/06/06 00:16:12;;;;;;;16.58;7.05;;;;;;;16.73;100.00;100650.53;5099210;28;20028;-74
2023/06/06 00:18:39;;;;;;;13.18;6.65;;;;;;;16.71;100.00;100652.81;5098952;28;20023;-75
2023/06/06 00:21:04;;;;;;;14.15;6.53;;;;;;;16.70;100.00;100644.75;5104729;28;20040;-74
2023/06/06 00:23:30;;;;;;;16.77;7.65;;;;;;;16.67;100.00;100656.66;5108087;28;20042;-75
2023/06/06 00:25:56;;;;;;;15.10;7.07;;;;;;;16.61;100.00;100658.78;5117043;28;20083;-75
2023/06/06 00:28:21;;;;;;;14.68;6.90;;;;;;;16.61;100.00;100658.78;5108083;28;20033;-75
2023/06/06 00:30:47;;;;;;;16.38;6.75;;;;;;;16.59;100.00;100663.09;5119306;28;20395;-75
2023/06/06 00:33:12;;;;;;;11.13;6.57;;;;;;;16.58;100.00;100655.84;5110270;28;20039;-75
2023/06/06 00:35:38;;;;;;;12.23;6.63;;;;;;;16.49;100.00;100653.00;5098919;28;20039;-74
2023/06/06 00:38:03;;;;;;;16.35;7.57;;;;;;;16.46;100.00;100664.88;5106815;28;20548;-74
2023/06/06 00:40:29;;;;;;;18.88;6.93;;;;;;;16.46;100.00;100656.47;5116669;28;20035;-75
2023/06/06 00:42:55;;;;;;;10.85;6.18;;;;;;;16.43;100.00;100655.16;5080839;28;20024;-75
2023/06/06 00:45:20;;;;;;;14.27;6.03;;;;;;;16.46;100.00;100656.47;5081755;28;20036;-75
2023/06/06 00:47:46;;;;;;;13.00;6.03;;;;;;;16.43;100.00;100657.16;5118853;28;20139;-74
2023/06/06 00:50:12;;;;;;;14.98;6.30;;;;;;;16.42;100.00;100655.50;5085034;28;20036;-75
2023/06/06 00:52:38;;;;;;;14.48;6.22;;;;;;;16.39;100.00;100657.00;5086677;28;20083;-74
2023/06/06 00:55:04;;;;;;;11.30;6.13;;;;;;;16.36;100.00;100651.22;5080578;28;20031;-75
2023/06/06 00:57:30;;;;;;;13.43;6.80;;;;;;;16.34;100.00;100650.72;5080482;28;20028;-74
2023/06/06 00:59:55;;;;;;;17.67;6.50;;;;;;;16.33;100.00;100646.28;5098240;28;20036;-75
2023/06/06 01:02:24;;;;;;;15.38;7.05;;;;;;;16.31;100.00;100646.59;5080460;28;20024;-75
2023/06/06 01:04:50;;;;;;;14.80;6.78;;;;;;;16.25;100.00;100648.75;5095720;28;20054;-74
2023/06/06 01:07:17;;;;;;;19.45;7.28;;;;;;;16.17;100.00;100641.16;5098006;28;20404;-74
2023/06/06 01:09:43;;;;;;;13.43;7.70;;;;;;;16.13;100.00;100640.19;5079552;28;20354;-74
2023/06/06 01:12:14;;;;;;;15.13;6.72;;;;;;;16.13;100.00;100642.13;5063645;28;20495;-74
2023/06/06 01:14:51;;;;;;;9.30;6.32;;;;;;;16.15;100.00;100640.66;5098180;28;20024;-75
2023/06/06 01:17:18;;;;;;;14.82;7.25;;;;;;;16.09;100.00;100639.97;5082502;28;20028;-75
2023/06/06 01:19:47;;;;;;;12.73;6.43;;;;;;;16.08;100.00;100641.16;5111704;28;20103;-75
2023/06/06 01:22:13;;;;;;;15.75;7.25;;;;;;;15.99;100.00;100643.13;5082119;28;20538;-75
2023/06/06 01:24:42;;;;;;;14.90;6.72;;;;;;;15.98;100.00;100635.03;5085148;28;20027;-75
2023/06/06 01:27:08;;;;;;;15.70;7.50;;;;;;;15.91;100.00;100641.13;5100137;28;20027;-75
2023/06/06 01:29:33;;;;;;;11.93;6.28;;;;;;;15.88;100.00;100638.13;5116540;28;20027;-75
2023/06/06 01:32:13;;;;;;;16.23;6.80;;;;;;;15.89;100.00;100637.00;5105916;28;20089;-74
2023/06/06 01:34:43;;;;;;;14.35;6.57;;;;;;;15.84;100.00;100632.38;5106041;28;20024;-74
2023/06/06 01:37:19;;;;;;;12.82;7.10;;;;;;;15.79;100.00;100643.72;5080985;28;20111;-75
2023/06/06 01:39:46;;;;;;;18.40;7.00;;;;;;;15.71;100.00;100636.13;5079763;28;20028;-75
2023/06/06 01:42:12;;;;;;;16.23;7.35;;;;;;;15.67;100.00;100635.13;5063587;28;20384;-75
2023/06/06 01:44:38;;;;;;;19.83;8.35;;;;;;;15.56;100.00;100634.59;5079882;28;20028;-74
2023/06/06 01:47:03;;;;;;;16.27;7.63;;;;;;;15.54;100.00;100634.88;5094946;28;20059;-74
2023/06/06 01:49:29;;;;;;;19.35;7.78;;;;;;;15.53;100.00;100638.03;5108090;28;20027;-74
2023/06/06 01:51:55;;;;;;;17.58;7.35;;;;;;;15.45;100.00;100634.03;5086170;28;20028;-75
2023/06/06 01:54:20;;;;;;;21.80;8.68;;;;;;;15.42;100.00;100637.50;5097801;28;20056;-75
2023/06/06 01:56:46;;;;;;;16.35;7.35;;;;;;;15.34;100.00;100622.31;5046248;28;20039;-74
2023/06/06 01:59:12;;;;;;;18.02;7.90;;;;;;;15.31;100.00;100628.56;5097767;28;20032;-74
2023/06/06 02:01:37;;;;;;;18.75;7.13;;;;;;;15.25;100.00;100629.84;5079522;28;20028;-75
2023/06/06 02:04:03;;;;;;;14.35;7.85;;;;;;;15.21;100.00;100628.88;5109679;28;20422;-74
2023/06/06 02:06:29;;;;;;;15.60;7.20;;;;;;;15.23;100.00;100625.72;5100623;28;20035;-75
2023/06/06 02:08:55;;;;;;;18.75;7.95;;;;;;;15.23;100.00;100629.34;5079518;28;20099;-74
2023/06/06 02:11:23;;;;;;;14.45;6.65;;;;;;;15.18;100.00;100624.75;5079408;28;20107;-75
2023/06/06 02:13:48;;;;;;;13.90;6.25;;;;;;;15.18;100.00;100618.28;5070313;28;20028;-75
2023/06/06 02:16:16;;;;;;;14.48;7.30;;;;;;;15.15;100.00;100622.56;5110788;28;20047;-74
2023/06/06 02:18:44;;;;;;;14.60;7.60;;;;;;;15.09;100.00;100620.25;5110062;28;20043;-74
2023/06/06 02:21:10;;;;;;;13.95;7.38;;;;;;;15.04;100.00;100618.41;5103526;28;20096;-74
2023/06/06 02:23:35;;;;;;;13.85;7.65;;;;;;;15.02;100.00;100614.31;5093960;28;20370;-74
2023/06/06 02:26:03;;;;;;;20.77;8.52;;;;;;;14.90;100.00;100612.91;5118881;28;20043;-74
2023/06/06 02:28:30;;;;;;;14.13;7.20;;;;;;;14.88;100.00;100612.41;5120220;28;20026;-74
2023/06/06 02:30:56;;;;;;;16.25;7.25;;;;;;;14.86;100.00;100608.28;5083423;28;20035;-75
2023/06/06 02:33:21;;;;;;;15.65;6.95;;;;;;;14.86;100.00;100611.09;5073256;28;20041;-74
2023/06/06 02:35:47;;;;;;;17.58;8.13;;;;;;;14.79;100.00;100611.50;5082540;28;20123;-75
2023/06/06 02:38:12;;;;;;;12.48;6.95;;;;;;;14.79;100.00;100608.72;5110714;28;20387;-75
2023/06/06 02:40:38;;;;;;;16.45;7.82;;;;;;;14.77;100.00;100618.59;5117847;28;20472;-75
2023/06/06 02:43:03;;;;;;;14.73;7.60;;;;;;;14.71;100.00;100615.13;5073296;28;20054;-74
2023/06/06 02:45:30;;;;;;;14.70;7.70;;;;;;;14.62;100.00;100614.22;5098867;28;20043;-74
2023/06/06 02:47:55;;;;;;;19.20;8.45;;;;;;;14.61;100.00;100610.59;5121199;28;20043;-74
2023/06/06 02:50:21;;;;;;;16.15;7.72;;;;;;;14.62;100.00;100609.44;5121358;28;20495;-74
2023/06/06 02:52:46;;;;;;;17.58;7.88;;;;;;;14.59;100.00;100606.47;5121291;28;20024;-74
2023/06/06 02:55:11;;;;;;;14.77;7.22;;;;;;;14.60;100.00;100602.53;5121257;28;20031;-74
2023/06/06 02:57:37;;;;;;;16.67;8.00;;;;;;;14.60;100.00;100594.97;5103130;28;20028;-74
2023/06/06 03:00:07;;;;;;;17.63;7.30;;;;;;;14.63;100.00;100607.50;5121020;28;20092;-74
2023/06/06 03:02:33;;;;;;;19.55;7.68;;;;;;;14.57;100.00;100591.97;5109573;28;20080;-74
2023/06/06 03:04:59;;;;;;;14.13;7.15;;;;;;;14.57;100.00;100597.56;5115958;28;20032;-74
2023/06/06 03:07:26;;;;;;;15.75;7.82;;;;;;;14.52;100.00;100601.34;5100436;28;20028;-74
2023/06/06 03:09:51;;;;;;;16.58;7.43;;;;;;;14.48;100.00;100589.09;5100589;28;20032;-74
2023/06/06 03:12:17;;;;;;;15.73;7.82;;;;;;;14.49;100.00;100591.59;5082210;28;20062;-74
2023/06/06 03:14:42;;;;;;;12.27;6.85;;;;;;;14.51;100.00;100586.50;5100851;28;20376;-74
2023/06/06 03:17:08;;;;;;;16.25;7.90;;;;;;;14.44;100.00;100582.50;5075706;28;20038;-74
2023/06/06 03:19:35;;;;;;;14.88;7.60;;;;;;;14.44;100.00;100588.09;5101337;28;20039;-74
2023/06/06 03:22:00;;;;;;;17.08;6.82;;;;;;;14.43;100.00;100586.44;5107650;28;20066;-74
2023/06/06 03:24:28;;;;;;;15.68;8.07;;;;;;;14.42;100.00;100588.41;5113915;28;20099;-74
2023/06/06 03:26:54;;;;;;;19.92;7.72;;;;;;;14.41;100.00;100586.75;5100384;28;20031;-74
2023/06/06 03:29:20;;;;;;;19.33;8.95;;;;;;;14.28;100.00;100585.69;5115578;28;20027;-74
2023/06/06 03:31:48;;;;;;;17.63;8.05;;;;;;;14.22;100.00;100592.53;5108868;28;20032;-74
2023/06/06 03:34:14;;;;;;;15.85;8.88;;;;;;;14.19;100.00;100589.56;5082584;28;20123;-74
2023/06/06 03:36:40;;;;;;;13.48;7.90;;;;;;;14.14;100.00;100592.47;5099911;28;20039;-74
2023/06/06 03:39:05;;;;;;;14.10;6.75;;;;;;;14.16;100.00;100588.22;5116859;28;20380;-74
2023/06/06 03:41:31;;;;;;;14.93;7.25;;;;;;;14.13;100.00;100593.63;5074184;28;20024;-74
2023/06/06 03:43:56;;;;;;;15.65;8.00;;;;;;;14.06;100.00;100588.47;5081894;28;20062;-74
2023/06/06 03:46:22;;;;;;;19.05;8.50;;;;;;;14.02;100.00;100588.28;5091556;28;20055;-74
2023/06/06 03:48:48;;;;;;;13.00;7.20;;;;;;;14.03;100.00;100589.09;5120243;28;20027;-74
2023/06/06 03:51:13;;;;;;;19.30;7.75;;;;;;;13.97;100.00;100593.16;5101691;28;20190;-74
2023/06/06 03:53:39;;;;;;;17.83;8.75;;;;;;;13.95;100.00;100596.25;5101935;28;20031;-74
2023/06/06 03:56:05;;;;;;;15.00;7.97;;;;;;;13.94;100.00;100596.56;5102147;28;20052;-74
2023/06/06 03:58:31;;;;;;;21.08;9.65;;;;;;;13.85;100.00;100596.50;5101759;28;20034;-74
2023/06/06 04:00:58;;;;;;;21.23;8.10;;;;;;;13.81;100.00;100592.66;5101755;28;20023;-74
2023/06/06 04:03:25;;;;;;;24.92;10.07;;;;;;;13.73;100.00;100597.00;5119845;28;20051;-74
2023/06/06 04:05:50;;;;;;;20.65;8.70;;;;;;;13.74;100.00;100592.28;5119675;28;20038;-74
2023/06/06 04:08:16;;;;;;;21.60;9.77;;;;;;;13.64;100.00;100596.94;5101726;28;20024;-74
2023/06/06 04:10:41;;;;;;;22.42;9.75;;;;;;;13.63;100.00;100594.47;5119936;28;20028;-74
2023/06/06 04:13:07;;;;;;;19.15;8.02;;;;;;;13.64;100.00;100604.47;5078342;28;20032;-74
2023/06/06 04:15:32;;;;;;;20.90;9.50;;;;;;;13.60;100.00;100609.03;5112615;28;20020;-74
2023/06/06 04:17:58;;;;;;;19.30;9.52;;;;;;;13.53;100.00;100603.88;5119568;28;20035;-74
2023/06/06 04:20:23;;;;;;;22.63;10.32;;;;;;;13.56;100.00;100597.66;5119450;28;20031;-74
2023/06/06 04:22:49;;;;;;;15.07;7.72;;;;;;;13.62;100.00;100602.03;5109423;28;20026;-74
2023/06/06 04:25:16;;;;;;;16.33;8.57;;;;;;;13.64;100.00;100613.66;5109714;28;20032;-74
2023/06/06 04:27:44;;;;;;;15.88;8.23;;;;;;;13.68;100.00;100610.25;5099149;28;20433;-74
2023/06/06 04:30:12;;;;;;;18.40;7.70;;;;;;;13.73;100.00;100607.34;5119732;28;20499;-74
2023/06/06 04:32:39;;;;;;;20.55;8.65;;;;;;;13.71;100.00;100613.28;5115528;28;20084;-73
2023/06/06 04:35:06;;;;;;;16.20;7.80;;;;;;;13.72;100.00;100603.75;5081126;28;20071;-74
2023/06/06 04:37:33;;;;;;;15.00;7.85;;;;;;;13.76;100.00;100606.72;5102495;28;20023;-74
2023/06/06 04:40:00;;;;;;;17.30;7.60;;;;;;;13.82;100.00;100613.88;5119195;28;20028;-74
2023/06/06 04:42:26;;;;;;;18.10;8.15;;;;;;;13.86;100.00;100610.13;5100691;28;20038;-74
2023/06/06 04:44:51;;;;;;;14.60;8.35;;;;;;;13.91;100.00;100611.16;5080707;28;20539;-74
2023/06/06 04:47:19;;;;;;;14.30;7.63;;;;;;;13.95;100.00;100610.19;5116346;28;20051;-74
2023/06/06 04:49:46;;;;;;;17.73;8.90;;;;;;;14.01;100.00;100613.69;5118996;28;20023;-74
2023/06/06 04:52:15;;;;;;;17.40;7.93;;;;;;;14.04;100.00;100604.69;5118629;28;20073;-74
2023/06/06 04:54:41;;;;;;;17.73;8.43;;;;;;;14.09;100.00;100607.38;5101377;28;20024;-74
2023/06/06 04:57:07;;;;;;;17.92;9.75;;;;;;;14.13;100.00;100616.78;5100749;28;20061;-74
2023/06/06 04:59:37;;;;;;;22.20;9.00;;;;;;;14.19;100.00;100609.94;5080381;28;20036;-74
2023/06/06 05:02:03;;;;;;;16.27;9.73;;;;;;;14.26;100.00;100610.34;5105355;28;20088;-74
2023/06/06 05:04:31;;;;;;;22.27;11.05;;;;;;;14.26;100.00;100615.06;5080194;28;20032;-74
2023/06/06 05:06:56;;;;;;;18.60;9.30;;;;;;;14.35;100.00;100618.78;5100194;28;20028;-74
2023/06/06 05:09:22;;;;;;;17.55;9.75;;;;;;;14.40;100.00;100618.66;5100465;28;20528;-74
2023/06/06 05:11:49;;;;;;;18.33;9.40;;;;;;;14.45;100.00;100617.69;5076154;28;20035;-74
2023/06/06 05:14:15;;;;;;;20.23;10.30;;;;;;;14.45;100.00;100623.28;5094452;28;20031;-74
2023/06/06 05:16:41;;;;;;;19.13;10.10;;;;;;;14.51;100.00;100619.19;5092762;28;20024;-74
2023/06/06 05:19:07;;;;;;;23.50;11.15;;;;;;;14.58;100.00;100618.81;5088223;28;20035;-74
2023/06/06 05:21:33;;;;;;;21.52;10.57;;;;;;;14.63;100.00;100618.69;5108759;28;20031;-74
2023/06/06 05:23:59;;;;;;;22.95;11.15;;;;;;;14.68;100.00;100613.78;5087272;28;20027;-74
2023/06/06 05:26:29;;;;;;;22.95;11.30;;;;;;;14.76;100.00;100617.75;5079962;28;20062;-74
2023/06/06 05:28:54;;;;;;;26.42;11.55;;;;;;;14.85;100.00;100626.19;5110020;28;20518;-74
2023/06/06 05:31:21;;;;;;;23.45;11.23;;;;;;;14.93;100.00;100617.03;5093379;28;20028;-74
2023/06/06 05:33:46;;;;;;;22.05;10.88;;;;;;;15.01;100.00;100623.81;5098119;28;20106;-74
2023/06/06 05:36:12;;;;;;;23.38;10.70;;;;;;;15.12;100.00;100622.38;5079677;28;20060;-74
2023/06/06 05:38:37;;;;;;;22.00;10.60;;;;;;;15.18;100.00;100627.53;5092557;28;20071;-74
2023/06/06 05:41:03;;;;;;;21.65;10.07;;;;;;;15.31;100.00;100634.16;5079854;28;20024;-74
2023/06/06 05:43:31;;;;;;;22.40;11.35;;;;;;;15.44;100.00;100623.19;5093379;28;20032;-74
2023/06/06 05:45:56;;;;;;;24.90;11.73;;;;;;;15.54;100.00;100620.06;5103867;28;20027;-74
2023/06/06 05:48:22;;;;;;;20.73;10.32;;;;;;;15.65;100.00;100627.03;5117890;28;20034;-74
2023/06/06 05:50:48;;;;;;;24.35;12.45;;;;;;;15.73;100.00;100629.06;5117917;28;20040;-74
2023/06/06 05:53:13;;;;;;;19.63;11.00;;;;;;;15.84;100.00;100630.38;5117942;28;20031;-74
2023/06/06 05:55:39;;;;;;;21.52;11.50;;;;;;;15.84;100.00;100626.78;5099359;28;20023;-74
2023/06/06 05:58:05;;;;;;;20.05;12.20;;;;;;;15.95;100.00;100632.88;5117900;28;20056;-74
2023/06/06 06:00:33;;;;;;;26.20;12.10;;;;;;;16.00;100.00;100624.34;5118146;28;20035;-74
2023/06/06 06:02:59;;;;;;;19.65;10.95;;;;;;;16.11;100.00;100628.47;5117601;28;20028;-74
2023/06/06 06:05:28;;;;;;;24.45;11.88;;;;;;;16.20;100.00;100622.84;5099573;28;20043;-74
2023/06/06 06:07:54;;;;;;;19.23;10.82;;;;;;;16.33;100.00;100633.09;5115645;28;20468;-74
2023/06/06 06:10:21;;;;;;;20.88;12.02;;;;;;;16.40;100.00;100632.59;5097899;28;20395;-73
2023/06/06 06:12:46;;;;;;;22.58;12.70;;;;;;;16.52;100.00;100639.19;5104997;28;20079;-74
2023/06/06 06:15:12;;;;;;;22.90;12.57;;;;;;;16.65;100.00;100637.34;5117589;28;20416;-74
2023/06/06 06:17:37;;;;;;;22.25;11.80;;;;;;;16.76;100.00;100635.00;5117811;28;20372;-74
2023/06/06 06:20:08;;;;;;;18.25;11.25;;;;;;;16.86;100.00;100634.69;5117530;28;20030;-74
2023/06/06 06:22:37;;;;;;;24.85;12.02;;;;;;;16.92;100.00;100629.75;5112088;28;20024;-74
2023/06/06 06:25:08;;;;;;;22.38;12.38;;;;;;;17.05;100.00;100637.13;5091398;28;20031;-74
2023/06/06 06:27:35;;;;;;;22.50;11.95;;;;;;;17.15;100.00;100636.75;5109593;28;20031;-74
2023/06/06 06:30:04;;;;;;;21.40;13.40;;;;;;;17.24;100.00;100642.31;5099711;28;20035;-74
2023/06/06 06:32:33;;;;;;;18.73;11.73;;;;;;;17.26;100.00;100630.78;5114769;28;20062;-74
2023/06/06 06:35:00;;;;;;;21.73;12.25;;;;;;;17.42;100.00;100629.06;5097722;28;20043;-74
2023/06/06 06:37:26;;;;;;;25.10;12.73;;;;;;;17.49;100.00;100637.75;5099660;28;20040;-74
2023/06/06 06:39:51;;;;;;;24.23;12.73;;;;;;;17.54;100.00;100634.78;5117645;28;20024;-74
2023/06/06 06:42:17;;;;;;;25.65;14.48;;;;;;;17.62;100.00;100628.28;5100383;28;20049;-74
2023/06/06 06:44:42;;;;;;;22.92;13.25;;;;;;;17.62;100.00;100635.91;5097326;28;20035;-74
2023/06/06 06:47:08;;;;;;;21.80;13.07;;;;;;;17.74;100.00;100641.59;5110061;28;20051;-74
2023/06/06 06:49:33;;;;;;;21.27;12.43;;;;;;;17.80;100.00;100642.25;5087182;28;20031;-74
2023/06/06 06:52:00;;;;;;;22.23;13.57;;;;;;;17.81;100.00;100644.72;5076468;28;20504;-74
2023/06/06 06:54:26;;;;;;;20.65;12.73;;;;;;;17.97;100.00;100642.16;5076980;28;20033;-74
2023/06/06 06:56:53;;;;;;;21.10;13.45;;;;;;;18.04;100.00;100647.22;5058964;28;20545;-74
2023/06/06 06:59:20;;;;;;;21.60;13.02;;;;;;;18.12;100.00;100642.72;5032856;28;20431;-74
2023/06/06 07:01:49;;;;;;;22.00;12.48;;;;;;;18.26;100.00;100648.88;5090047;28;20032;-74
2023/06/06 07:04:16;;;;;;;24.80;12.70;;;;;;;18.36;100.00;100648.50;5093229;28;20627;-74
2023/06/06 07:06:46;;;;;;;20.92;12.60;;;;;;;18.47;100.00;100655.34;5092047;28;20051;-74
2023/06/06 07:09:13;;;;;;;20.77;12.18;;;;;;;18.56;100.00;100648.81;5080447;28;20024;-74
2023/06/06 07:11:38;;;;;;;20.35;13.18;;;;;;;18.72;100.00;100649.81;5080282;28;20032;-74
2023/06/06 07:14:04;;;;;;;22.67;13.02;;;;;;;18.79;100.00;100647.28;5080307;28;20092;-74
2023/06/06 07:16:30;;;;;;;19.42;12.05;;;;;;;18.99;100.00;100637.16;5080103;28;20058;-74
2023/06/06 07:18:56;;;;;;;19.73;12.75;;;;;;;19.13;100.00;100648.09;5080331;28;20040;-74
2023/06/06 07:21:22;;;;;;;20.67;12.35;;;;;;;19.24;100.00;100654.09;5086522;28;20025;-74
2023/06/06 07:23:48;;;;;;;19.33;11.73;;;;;;;19.41;100.00;100651.88;5088601;28;20098;-74
2023/06/06 07:26:16;;;;;;;19.02;12.35;;;;;;;19.50;100.00;100651.78;5061990;28;20021;-74
2023/06/06 07:28:46;;;;;;;19.70;12.45;;;;;;;19.58;100.00;100650.81;5090131;28;20030;-74
2023/06/06 07:31:16;;;;;;;18.75;12.60;;;;;;;19.73;100.00;100655.00;5094624;28;20032;-74
2023/06/06 07:33:41;;;;;;;17.23;11.68;;;;;;;19.86;100.00;100644.50;5079369;28;20105;-74
2023/06/06 07:36:07;;;;;;;22.73;13.13;;;;;;;19.96;100.00;100646.03;5080505;28;20409;-74
2023/06/06 07:38:33;;;;;;;22.08;11.82;;;;;;;19.98;100.00;100638.06;5105171;28;20028;-74
2023/06/06 07:40:59;;;;;;;23.58;12.45;;;;;;;20.09;100.00;100640.03;5094733;28;20051;-74
2023/06/06 07:43:24;;;;;;;20.27;13.07;;;;;;;20.23;100.00;100644.47;5087209;28;20036;-74
2023/06/06 07:45:50;;;;;;;20.30;12.23;;;;;;;20.34;100.00;100645.63;5072427;28;20035;-75
2023/06/06 07:48:16;;;;;;;19.70;12.35;;;;;;;20.47;100.00;100649.19;5106912;28;20110;-74
2023/06/06 07:50:41;;;;;;;23.92;12.73;;;;;;;20.54;100.00;100641.00;5061567;28;20051;-74
2023/06/06 07:53:08;;;;;;;19.75;12.23;;;;;;;20.66;100.00;100646.56;5090887;28;20503;-74
2023/06/06 07:55:35;;;;;;;19.45;11.68;;;;;;;20.80;100.00;100645.34;5079852;28;20024;-74
2023/06/06 07:58:01;;;;;;;18.02;11.05;;;;;;;20.93;100.00;100646.94;5061432;28;20511;-74
2023/06/06 08:00:27;;;;;;;18.25;11.57;;;;;;;21.05;100.00;100648.84;5076701;28;20028;-74
2023/06/06 08:02:52;;;;;;;20.48;12.25;;;;;;;21.16;100.00;100649.97;5055028;28;20090;-74
2023/06/06 08:05:18;;;;;;;18.88;11.52;;;;;;;21.26;100.00;100651.44;5092069;28;20039;-74
2023/06/06 08:07:44;;;;;;;16.73;10.40;;;;;;;21.35;100.00;100646.44;5079201;28;20032;-74
2023/06/06 08:10:10;;;;;;;18.17;12.38;;;;;;;21.41;100.00;100645.81;5079298;28;20024;-75
2023/06/06 08:12:35;;;;;;;17.90;11.43;;;;;;;21.46;99.61;100641.09;5061149;28;20032;-74
2023/06/06 08:15:03;;;;;;;17.88;10.10;;;;;;;21.61;99.59;100649.53;5078979;28;20477;-74
2023/06/06 08:17:28;;;;;;;23.17;12.13;;;;;;;21.76;97.51;100635.78;5078935;28;20456;-75
2023/06/06 08:19:54;;;;;;;18.23;10.70;;;;;;;21.90;96.59;100623.97;5080757;28;20031;-75
2023/06/06 08:22:19;;;;;;;19.35;10.07;;;;;;;22.02;95.59;100638.00;5070104;28;20028;-75
2023/06/06 08:24:45;;;;;;;16.60;10.25;;;;;;;22.07;94.94;100635.69;5079598;28;20036;-75
2023/06/06 08:27:10;;;;;;;16.48;9.65;;;;;;;22.20;94.18;100633.56;5078939;28;20040;-75
2023/06/06 08:29:36;;;;;;;16.25;9.82;;;;;;;22.32;93.36;100632.63;5079833;28;20031;-75
2023/06/06 08:32:02;;;;;;;15.90;10.18;;;;;;;22.50;92.90;100633.00;5086359;28;20036;-75
2023/06/06 08:34:28;;;;;;;15.30;10.48;;;;;;;22.55;90.74;100637.56;5064409;28;20028;-75
2023/06/06 08:36:53;;;;;;;15.38;10.02;;;;;;;22.66;89.22;100627.28;5078507;28;20047;-75
2023/06/06 08:39:20;;;;;;;15.07;10.52;;;;;;;22.80;89.23;100638.06;5075047;28;20036;-75
2023/06/06 08:41:55;;;;;;;20.13;10.70;;;;;;;22.94;86.82;100627.00;5086018;28;20028;-75
2023/06/06 08:44:22;;;;;;;15.40;10.10;;;;;;;23.03;85.00;100619.13;5044632;28;20028;-75
2023/06/06 08:46:55;;;;;;;14.45;9.95;;;;;;;23.18;84.41;100615.38;5070508;28;20547;-75
2023/06/06 08:49:20;;;;;;;19.13;11.50;;;;;;;23.29;81.85;100621.22;5060799;28;20083;-75
2023/06/06 08:51:50;;;;;;;18.98;10.30;;;;;;;23.44;81.99;100622.28;5073522;28;20028;-75
2023/06/06 08:54:19;;;;;;;17.05;10.07;;;;;;;23.53;79.75;100628.50;5078430;28;20443;-75
2023/06/06 08:56:44;;;;;;;13.75;9.23;;;;;;;23.68;81.26;100625.88;5068047;28;20032;-75
2023/06/06 08:59:10;;;;;;;18.77;10.52;;;;;;;23.78;79.61;100625.28;5088721;28;20071;-75
2023/06/06 09:01:37;;;;;;;14.20;9.95;;;;;;;23.79;78.21;100622.06;5060250;28;20473;-75
2023/06/06 09:04:02;;;;;;;13.63;9.88;;;;;;;23.97;77.96;100621.53;5092069;28;20438;-75
2023/06/06 09:06:28;;;;;;;13.85;9.23;;;;;;;24.08;75.24;100619.66;5063161;28;20089;-75
2023/06/06 09:08:54;;;;;;;15.85;8.88;;;;;;;24.22;74.02;100614.16;5043743;28;20090;-75
2023/06/06 09:11:21;;;;;;;16.38;9.38;;;;;;;24.38;74.64;100616.81;5060143;28;20036;-75
2023/06/06 09:13:46;;;;;;;14.77;9.63;;;;;;;24.38;73.93;100621.69;5054101;28;20028;-75
2023/06/06 09:16:14;;;;;;;13.65;8.85;;;;;;;24.49;71.12;100614.97;5080816;28;20039;-75
2023/06/06 09:18:41;;;;;;;16.05;9.23;;;;;;;24.66;71.17;100613.53;5077916;28;20068;-75
2023/06/06 09:21:07;;;;;;;15.85;8.95;;;;;;;24.73;69.20;100624.97;5063701;28;20035;-75
2023/06/06 09:23:32;;;;;;;16.20;8.85;;;;;;;24.80;69.15;100623.44;5087181;28;20028;-75
2023/06/06 09:25:58;;;;;;;12.15;8.63;;;;;;;24.94;67.90;100615.06;5031018;28;20435;-75
2023/06/06 09:28:39;;;;;;;15.30;9.13;;;;;;;24.96;67.47;100621.16;5050737;28;20387;-75
2023/06/06 09:31:30;;;;;;;14.32;9.13;;;;;;;25.05;65.97;100624.53;5092482;28;20036;-75
2023/06/06 09:33:56;;;;;;;13.20;8.35;;;;;;;25.14;66.08;100627.88;5077741;28;20047;-75
2023/06/06 09:36:23;;;;;;;14.13;8.63;;;;;;;25.22;63.76;100622.28;5079653;28;20032;-75
2023/06/06 09:38:51;;;;;;;12.25;8.18;;;;;;;25.40;63.05;100611.88;5096724;28;20024;-75
2023/06/06 09:41:17;;;;;;;15.48;8.18;;;;;;;25.50;63.13;100619.69;5089005;28;20499;-75
2023/06/06 09:43:43;;;;;;;14.40;8.30;;;;;;;25.64;62.55;100616.94;5076694;28;20024;-75
2023/06/06 09:46:08;;;;;;;16.70;8.95;;;;;;;25.59;62.42;100616.50;5098133;28;20059;-75
2023/06/06 09:48:34;;;;;;;12.45;8.10;;;;;;;25.77;61.45;100610.94;5099855;28;20299;-75
2023/06/06 09:51:01;;;;;;;11.75;8.90;;;;;;;25.76;61.26;100621.50;5059641;28;20045;-76
2023/06/06 09:53:27;;;;;;;14.93;7.90;;;;;;;25.85;59.65;100612.66;5042915;28;20035;-76
2023/06/06 09:55:55;;;;;;;12.88;7.93;;;;;;;26.07;59.09;100605.06;5052278;28;20024;-76
2023/06/06 09:58:21;;;;;;;10.98;8.10;;;;;;;26.19;58.83;100609.63;5076780;28;20465;-76
2023/06/06 10:00:47;;;;;;;16.10;8.75;;;;;;;26.30;59.08;100602.75;5077324;28;20093;-76
2023/06/06 10:03:18;;;;;;;11.40;7.65;;;;;;;26.44;57.96;100602.00;5064532;28;20396;-76
2023/06/06 10:05:45;;;;;;;16.17;8.77;;;;;;;26.56;57.99;100611.44;5052472;28;20047;-77
2023/06/06 10:08:11;;;;;;;14.73;8.48;;;;;;;26.68;56.84;100605.38;5026274;28;20035;-77
2023/06/06 10:10:36;;;;;;;12.93;8.02;;;;;;;26.78;54.92;100604.59;5059534;28;20385;-76
2023/06/06 10:13:02;;;;;;;15.02;8.23;;;;;;;26.80;56.17;100607.03;5059316;28;20029;-77
2023/06/06 10:15:27;;;;;;;12.98;9.18;;;;;;;26.79;56.00;100602.56;5077181;28;20028;-77
2023/06/06 10:17:53;;;;;;;14.13;7.90;;;;;;;26.94;55.96;100599.34;5060538;28;20028;-76
2023/06/06 10:20:18;;;;;;;13.98;7.55;;;;;;;27.06;54.66;100600.19;5068026;28;20025;-77
2023/06/06 10:22:44;;;;;;;12.27;7.72;;;;;;;27.24;54.51;100605.91;5082748;28;20055;-77
2023/06/06 10:25:12;;;;;;;11.48;8.30;;;;;;;27.30;54.48;100596.56;5077167;28;20480;-77
2023/06/06 10:27:39;;;;;;;14.35;8.00;;;;;;;27.39;54.29;100594.13;5043762;28;20053;-77
2023/06/06 10:30:12;;;;;;;16.75;7.40;;;;;;;27.60;54.14;100586.78;5079558;28;20059;-77
2023/06/06 10:32:56;;;;;;;;;;;;;;;27.70;52.84;100593.69;5063629;28;20028;-77
2023/06/06 10:35:22;;;;;;;11.52;7.40;;;;;;;27.80;50.56;100593.72;5091649;28;19916;-77
2023/06/06 10:38:07;;;;;;;11.43;8.07;;;;;;;27.74;50.86;100589.59;5065056;28;20082;-77
2023/06/06 10:40:52;;;;;;;18.67;8.30;;;;;;;27.70;50.65;100585.16;5076759;28;20029;-77
2023/06/06 10:43:41;;;;;;;11.25;7.63;;;;;;;27.83;49.60;100581.47;5063077;28;20060;-77
2023/06/06 10:46:07;;;;;;;12.80;7.60;;;;;;;27.91;49.10;100573.69;5065842;28;20156;-77
2023/06/06 10:48:39;;;;;;;13.48;7.95;;;;;;;27.84;49.06;100579.44;5067964;28;20036;-77
2023/06/06 10:51:06;;;;;;;15.00;7.88;;;;;;;27.90;48.15;100577.78;5076564;28;20106;-77
2023/06/06 10:53:31;;;;;;;12.88;8.35;;;;;;;27.76;48.77;100575.75;5082923;28;20034;-77
2023/06/06 10:55:56;;;;;;;12.30;7.30;;;;;;;27.77;48.48;100571.66;5083062;28;20020;-70
2023/06/06 10:58:36;;;;;;;11.18;7.50;;;;;;;27.72;47.27;100571.25;5066116;28;20039;-70
2023/06/06 11:01:05;;;;;;;12.77;7.53;;;;;;;27.56;47.41;100572.53;5082568;28;20115;-70
2023/06/06 11:03:41;;;;;;;12.18;8.18;;;;;;;27.38;48.32;100566.00;5120048;28;20042;-71
2023/06/06 11:06:08;;;;;;;11.95;7.55;;;;;;;27.43;48.42;100559.91;5088699;28;20042;-70
2023/06/06 11:08:37;;;;;;;13.77;8.98;;;;;;;27.28;48.98;100559.09;5100835;28;20020;-70